Nearby METAR Reports

 

KHOB - Hobbs, New Mexico, USA
Distance from station: S 40mi, 65km
Updated: Tue, 21-Aug-2018 4:15am MDT
Overcast
Overcast
 Wind from ESE
Wind: ESE 9 mph , 15 km/h
Temperature: 68°F , 20°C
Dew Point: 63°F , 17°C
Humidity: 83%
Barometer: 30.20 inHg , 1022.7 hPa
Clouds: Overcast
Visibility: 10 miles , 16 km
Cloud details: Mostly cloudy 4300 ft
Mostly cloudy 4900 ft
Overcast 5500 ft
2018/08/21 10:15 KHOB 211015Z AUTO 11008KT 10SM BKN043 BKN049 OVC055 20/17 A3020 RMK AO2
KGNC - Seminole, Texas, USA
Distance from station: SE 55mi, 89km
Updated: Tue, 21-Aug-2018 4:15am MDT
Clear
Clear
 Wind from ENE
Wind: ENE 3 mph , 6 km/h
Temperature: 68°F , 20°C
Dew Point: 64°F , 18°C
Humidity: 88%
Barometer: 30.20 inHg , 1022.7 hPa
Clouds: Clear
Visibility: 10 miles , 16 km
2018/08/21 10:15 KGNC 211015Z AUTO 07003KT 10SM CLR 20/18 A3020 RMK AO2 T02030180
 
KROW - Roswell, New Mexico, USA
Distance from station: W 67mi, 108km
Updated: Tue, 21-Aug-2018 3:51am MDT
Partly cloudy
Partly cloudy
 Wind from SSE
Wind: SSE 6 mph , 9 km/h
Temperature: 70°F , 21°C
Dew Point: 63°F , 17°C
Humidity: 78%
Barometer: 30.18 inHg , 1022 hPa
Clouds: Partly cloudy
Visibility: 10 miles , 16 km
Cloud details: Partly cloudy 11000 ft
2018/08/21 09:51 KROW 210951Z 15005KT 10SM SCT110 21/17 A3018 RMK AO2 SLP153 T02110167
KATS - Artesia, New Mexico, USA
Distance from station: WSW 71mi, 114km
Updated: Tue, 21-Aug-2018 4:15am MDT
Clear
Clear
 Wind from SSE
Wind: SSE 5 mph , 7 km/h
Temperature: 70°F , 21°C
Dew Point: 66°F , 19°C
Humidity: 88%
Barometer: 30.18 inHg , 1022 hPa
Clouds: Clear
Visibility: 10 miles , 16 km
2018/08/21 10:15 KATS 211015Z AUTO 16004KT 10SM CLR 21/19 A3018 RMK AO2
 
KCVS - Cannon AFB,Clovis, New Mexico, USA
Distance from station: 0 78mi, 125km
Updated: Tue, 21-Aug-2018 3:58am MDT
Clear
Clear
 Wind from ESE
Wind: ESE 6 mph , 9 km/h
Temperature: 63°F , 17°C
Dew Point: 63°F , 17°C
Humidity: 100%
Barometer: 30.25 inHg , 1024.4 hPa
Clouds: Clear
Visibility: 10 miles , 16 km
2018/08/21 09:58 KCVS 210958Z AUTO 11005KT 10SM CLR 17/17 A3025 RMK AO2 SLP190 T01700170 $
KE11 - Andrews, Texas, USA
Distance from station: SE 78mi, 126km
Updated: Tue, 21-Aug-2018 4:15am MDT
Clear
Clear
 Wind from ESE
Wind: ESE 3 mph , 6 km/h
Temperature: 70°F , 21°C
Dew Point: 64°F , 18°C
Humidity: 83%
Barometer: 30.18 inHg , 1022 hPa
Clouds: Clear
Visibility: 10 miles , 16 km
2018/08/21 10:15 KE11 211015Z AUTO 11003KT 10SM CLR 21/18 A3018 RMK AO2 T02100176
 
KCNM - Carlsbad, New Mexico, USA
Distance from station: SW 82mi, 132km
Updated: Tue, 21-Aug-2018 3:53am MDT
Clear
Clear
 Wind from calm
Wind: Calm
Temperature: 70°F , 21°C
Dew Point: 64°F , 18°C
Humidity: 83%
Barometer: 30.15 inHg , 1021 hPa
Clouds: Clear
Visibility: 10 miles , 16 km
2018/08/21 09:53 KCNM 210953Z AUTO 00000KT 10SM CLR 21/18 A3015 RMK AO2 SLP156 T02110183
KCVN - Clovis Muni, New Mexico, USA
Distance from station: N 83mi, 133km
Updated: Tue, 21-Aug-2018 3:56am MDT
Clear
Clear
 Wind from SE
Wind: SE 3 mph , 6 km/h
Temperature: 63°F , 17°C
Dew Point: 59°F , 15°C
Humidity: 88%
Barometer: 30.25 inHg , 1024.4 hPa
Clouds: Clear
Visibility: 7 miles , 11 km
2018/08/21 09:56 KCVN 210956Z AUTO 14003KT 7SM CLR 17/15 A3025 RMK AO2 SLP207 T01670150
 
KLBB - Lubbock, Texas, USA
Distance from station: ENE 92mi, 149km
Updated: Tue, 21-Aug-2018 3:53am MDT
Haze, Few clouds
Haze, Few clouds
 Wind from ESE
Wind: ESE 8 mph , 13 km/h
Temperature: 66°F , 19°C
Dew Point: 57°F , 14°C
Humidity: 73%
Barometer: 30.20 inHg , 1022.7 hPa
Summary: Haze
Clouds: Few Clouds
Visibility: 4 miles , 6 km
Cloud details: Few Clouds 18000 ft
Few Clouds 26000 ft
2018/08/21 09:53 KLBB 210953Z 11007KT 4SM HZ FEW180 FEW260 19/14 A3020 RMK AO2 SLP176 T01890144
KINK - Wink, Texas, USA
Distance from station: S 101mi, 163km
Updated: Tue, 21-Aug-2018 3:53am MDT
Clear
Clear
 Wind from ESE
Wind: ESE 3 mph , 6 km/h
Temperature: 72°F , 22°C
Dew Point: 64°F , 18°C
Humidity: 78%
Barometer: 30.12 inHg , 1020 hPa
Clouds: Clear
Visibility: 10 miles , 16 km
2018/08/21 09:53 KINK 210953Z AUTO 11003KT 10SM CLR 22/18 A3012 RMK AO2 SLP152 T02220178
 
KMAF - Midland, Texas, USA
Distance from station: SE 111mi, 179km
Updated: Tue, 21-Aug-2018 3:53am MDT
Clear
Clear
 Wind from ESE
Wind: ESE 7 mph , 11 km/h
Temperature: 75°F , 24°C
Dew Point: 64°F , 18°C
Humidity: 69%
Barometer: 30.15 inHg , 1021 hPa
Clouds: Clear
Visibility: 10 miles , 16 km
2018/08/21 09:53 KMAF 210953Z AUTO 12006KT 10SM CLR 24/18 A3015 RMK AO2 SLP158 T02440178
KSRR - Sierra B/Ruidoso, New Mexico, USA
Distance from station: W 127mi, 204km
Updated: Tue, 21-Aug-2018 4:15am MDT

 Wind from SSE
Wind: SSE 3 mph , 6 km/h
Temperature: 59°F , 15°C
Dew Point: 57°F , 14°C
Humidity: 94%
Barometer: 30.38 inHg , 1028.8 hPa
2018/08/21 10:15 KSRR 211015Z AUTO 15003KT 15/14 A3038 RMK AO2
 
KGDP - Guadalupe Pass, Texas, USA
Distance from station: SW 130mi, 209km
Updated: Mon, 20-Aug-2018 6:51pm MDT
NOT Current
Clear
Clear
 Wind from ENE
Wind: ENE 23 mph , 37 km/h
Temperature: 75°F , 24°C
Dew Point: 57°F , 14°C
Humidity: 54%
Barometer: 30.24 inHg , 1024 hPa
Clouds: Clear
Visibility: 9 miles , 14 km
2018/08/21 00:51 KGDP 210051Z AUTO 07020KT 9SM CLR 24/14 A3024 RMK AO2 SLP161 T02390139 $